sensor_id;sensor_type;location;lat;lon;timestamp;pressure;altitude;pressure_sealevel;temperature;humidity
43161;BME280;40968;52.342;5.528;2022-07-03T00:01:16;101781.25;;;18.61;59.51
43161;BME280;40968;52.342;5.528;2022-07-03T00:03:42;101754.41;;;18.38;59.40
43161;BME280;40968;52.342;5.528;2022-07-03T00:06:11;101779.97;;;18.46;59.72
43161;BME280;40968;52.342;5.528;2022-07-03T00:08:38;101768.13;;;18.27;60.21
43161;BME280;40968;52.342;5.528;2022-07-03T00:11:05;101788.41;;;18.33;60.01
43161;BME280;40968;52.342;5.528;2022-07-03T00:13:32;101748.56;;;18.04;60.38
43161;BME280;40968;52.342;5.528;2022-07-03T00:15:59;101785.28;;;18.28;60.38
43161;BME280;40968;52.342;5.528;2022-07-03T00:18:26;101789.25;;;18.33;60.59
43161;BME280;40968;52.342;5.528;2022-07-03T00:20:57;101753.00;;;18.15;60.34
43161;BME280;40968;52.342;5.528;2022-07-03T00:23:29;101753.97;;;18.14;60.40
43161;BME280;40968;52.342;5.528;2022-07-03T00:25:57;101693.53;;;17.82;60.24
43161;BME280;40968;52.342;5.528;2022-07-03T00:28:28;101719.09;;;17.89;60.78
43161;BME280;40968;52.342;5.528;2022-07-03T00:30:55;101747.91;;;17.90;60.64
43161;BME280;40968;52.342;5.528;2022-07-03T00:33:22;101776.94;;;18.00;60.84
43161;BME280;40968;52.342;5.528;2022-07-03T00:35:52;101761.63;;;17.79;61.45
43161;BME280;40968;52.342;5.528;2022-07-03T00:38:21;101786.16;;;17.87;61.42
43161;BME280;40968;52.342;5.528;2022-07-03T00:40:49;101750.28;;;17.64;61.35
43161;BME280;40968;52.342;5.528;2022-07-03T00:43:16;101784.59;;;17.85;61.47
43161;BME280;40968;52.342;5.528;2022-07-03T00:45:46;101762.44;;;17.70;61.88
43161;BME280;40968;52.342;5.528;2022-07-03T00:48:14;101774.28;;;17.69;61.76
43161;BME280;40968;52.342;5.528;2022-07-03T00:50:45;101780.41;;;17.71;62.45
43161;BME280;40968;52.342;5.528;2022-07-03T00:53:12;101762.53;;;17.59;62.23
43161;BME280;40968;52.342;5.528;2022-07-03T00:55:40;101766.25;;;17.57;62.28
43161;BME280;40968;52.342;5.528;2022-07-03T00:58:09;101786.66;;;17.62;62.13
43161;BME280;40968;52.342;5.528;2022-07-03T01:00:39;101777.38;;;17.54;62.27
43161;BME280;40968;52.342;5.528;2022-07-03T01:03:13;101760.75;;;17.38;62.58
43161;BME280;40968;52.342;5.528;2022-07-03T01:05:43;101778.19;;;17.45;62.50
43161;BME280;40968;52.342;5.528;2022-07-03T01:08:26;101739.28;;;17.15;62.81
43161;BME280;40968;52.342;5.528;2022-07-03T01:11:03;101773.59;;;17.36;62.88
43161;BME280;40968;52.342;5.528;2022-07-03T01:13:39;101773.00;;;17.32;62.97
43161;BME280;40968;52.342;5.528;2022-07-03T01:16:16;101749.59;;;17.21;63.18
43161;BME280;40968;52.342;5.528;2022-07-03T01:18:49;101755.84;;;17.22;63.36
43161;BME280;40968;52.342;5.528;2022-07-03T01:21:23;101757.69;;;17.21;64.06
43161;BME280;40968;52.342;5.528;2022-07-03T01:24:17;101726.09;;;17.01;63.98
43161;BME280;40968;52.342;5.528;2022-07-03T01:26:57;101765.56;;;17.24;63.29
43161;BME280;40968;52.342;5.528;2022-07-03T01:29:34;101764.81;;;17.22;63.83
43161;BME280;40968;52.342;5.528;2022-07-03T01:32:03;101762.09;;;17.22;63.78
43161;BME280;40968;52.342;5.528;2022-07-03T01:34:34;101766.97;;;17.19;64.00
43161;BME280;40968;52.342;5.528;2022-07-03T01:37:04;101715.84;;;16.83;64.19
43161;BME280;40968;52.342;5.528;2022-07-03T01:39:34;101761.19;;;17.12;63.94
43161;BME280;40968;52.342;5.528;2022-07-03T01:42:04;101741.16;;;16.94;64.01
43161;BME280;40968;52.342;5.528;2022-07-03T01:44:32;101724.22;;;16.80;63.89
43161;BME280;40968;52.342;5.528;2022-07-03T01:46:59;101752.75;;;16.84;64.96
43161;BME280;40968;52.342;5.528;2022-07-03T01:49:28;101677.13;;;16.40;64.59
43161;BME280;40968;52.342;5.528;2022-07-03T01:51:58;101737.59;;;16.72;64.60
43161;BME280;40968;52.342;5.528;2022-07-03T01:54:25;101754.53;;;16.74;64.83
43161;BME280;40968;52.342;5.528;2022-07-03T01:56:52;101744.25;;;16.68;65.64
43161;BME280;40968;52.342;5.528;2022-07-03T01:59:21;101747.47;;;16.62;66.31
43161;BME280;40968;52.342;5.528;2022-07-03T02:01:52;101710.84;;;16.36;66.12
43161;BME280;40968;52.342;5.528;2022-07-03T02:04:24;101741.31;;;16.60;65.98
43161;BME280;40968;52.342;5.528;2022-07-03T02:06:58;101718.19;;;16.46;66.85
43161;BME280;40968;52.342;5.528;2022-07-03T02:09:36;101648.53;;;16.05;67.10
43161;BME280;40968;52.342;5.528;2022-07-03T02:12:11;101739.88;;;16.55;66.19
43161;BME280;40968;52.342;5.528;2022-07-03T02:14:40;101697.31;;;16.15;65.57
43161;BME280;40968;52.342;5.528;2022-07-03T02:17:15;101722.56;;;16.25;65.76
43161;BME280;40968;52.342;5.528;2022-07-03T02:19:46;101694.38;;;16.07;65.88
43161;BME280;40968;52.342;5.528;2022-07-03T02:22:17;101736.03;;;16.37;66.11
43161;BME280;40968;52.342;5.528;2022-07-03T02:24:47;101724.28;;;16.27;66.63
43161;BME280;40968;52.342;5.528;2022-07-03T02:27:16;101735.84;;;16.29;66.05
43161;BME280;40968;52.342;5.528;2022-07-03T02:29:51;101742.97;;;16.30;66.67
43161;BME280;40968;52.342;5.528;2022-07-03T02:32:22;101694.03;;;16.00;66.37
43161;BME280;40968;52.342;5.528;2022-07-03T02:35:02;101702.16;;;16.00;66.77
43161;BME280;40968;52.342;5.528;2022-07-03T02:37:39;101737.59;;;16.18;67.14
43161;BME280;40968;52.342;5.528;2022-07-03T02:40:14;101719.22;;;16.01;66.86
43161;BME280;40968;52.342;5.528;2022-07-03T02:42:46;101735.06;;;16.05;67.28
43161;BME280;40968;52.342;5.528;2022-07-03T02:45:17;101726.69;;;16.08;67.02
43161;BME280;40968;52.342;5.528;2022-07-03T02:47:49;101738.84;;;16.14;66.70
43161;BME280;40968;52.342;5.528;2022-07-03T02:50:21;101742.81;;;16.10;66.32
43161;BME280;40968;52.342;5.528;2022-07-03T02:52:59;101744.50;;;16.11;66.71
43161;BME280;40968;52.342;5.528;2022-07-03T02:55:40;101721.69;;;15.93;66.27
43161;BME280;40968;52.342;5.528;2022-07-03T02:58:37;101760.16;;;16.07;66.36
43161;BME280;40968;52.342;5.528;2022-07-03T03:01:15;101750.44;;;16.05;66.73
43161;BME280;40968;52.342;5.528;2022-07-03T03:03:51;101750.66;;;16.02;66.81
43161;BME280;40968;52.342;5.528;2022-07-03T03:06:21;101730.94;;;15.90;66.91
43161;BME280;40968;52.342;5.528;2022-07-03T03:08:58;101716.09;;;15.84;66.88
43161;BME280;40968;52.342;5.528;2022-07-03T03:11:32;101752.66;;;16.00;67.26
43161;BME280;40968;52.342;5.528;2022-07-03T03:14:00;101738.53;;;15.96;67.16
43161;BME280;40968;52.342;5.528;2022-07-03T03:16:28;101672.28;;;15.58;66.77
43161;BME280;40968;52.342;5.528;2022-07-03T03:18:54;101731.53;;;15.94;66.82
43161;BME280;40968;52.342;5.528;2022-07-03T03:21:23;101701.22;;;15.79;67.35
43161;BME280;40968;52.342;5.528;2022-07-03T03:23:52;101742.69;;;16.00;66.95
43161;BME280;40968;52.342;5.528;2022-07-03T03:26:20;101737.56;;;15.97;67.26
43161;BME280;40968;52.342;5.528;2022-07-03T03:28:47;101720.13;;;15.90;67.51
43161;BME280;40968;52.342;5.528;2022-07-03T03:31:14;101735.66;;;16.09;67.11
43161;BME280;40968;52.342;5.528;2022-07-03T03:33:43;101739.84;;;16.13;66.71
43161;BME280;40968;52.342;5.528;2022-07-03T03:36:12;101720.09;;;16.01;66.49
43161;BME280;40968;52.342;5.528;2022-07-03T03:38:40;101719.47;;;15.98;66.02
43161;BME280;40968;52.342;5.528;2022-07-03T03:41:07;101683.91;;;15.81;65.96
43161;BME280;40968;52.342;5.528;2022-07-03T03:43:35;101746.44;;;16.20;65.81
43161;BME280;40968;52.342;5.528;2022-07-03T03:46:03;101750.84;;;16.21;66.19
43161;BME280;40968;52.342;5.528;2022-07-03T03:48:32;101637.16;;;15.58;66.04
43161;BME280;40968;52.342;5.528;2022-07-03T03:51:00;101739.19;;;16.21;65.99
43161;BME280;40968;52.342;5.528;2022-07-03T03:53:28;101724.84;;;16.09;65.68
43161;BME280;40968;52.342;5.528;2022-07-03T03:56:00;101692.84;;;15.93;65.73
43161;BME280;40968;52.342;5.528;2022-07-03T03:58:27;101733.44;;;16.14;65.85
43161;BME280;40968;52.342;5.528;2022-07-03T04:00:55;101710.88;;;16.04;65.68
43161;BME280;40968;52.342;5.528;2022-07-03T04:03:22;101733.91;;;16.19;65.55
43161;BME280;40968;52.342;5.528;2022-07-03T04:05:49;101700.06;;;15.93;65.39
43161;BME280;40968;52.342;5.528;2022-07-03T04:08:17;101655.56;;;15.64;65.11
43161;BME280;40968;52.342;5.528;2022-07-03T04:10:44;101756.25;;;16.21;64.99
43161;BME280;40968;52.342;5.528;2022-07-03T04:13:11;101726.59;;;16.10;64.95
43161;BME280;40968;52.342;5.528;2022-07-03T04:15:38;101750.47;;;16.26;65.28
43161;BME280;40968;52.342;5.528;2022-07-03T04:18:05;101718.66;;;16.18;65.73
43161;BME280;40968;52.342;5.528;2022-07-03T04:20:32;101753.00;;;16.39;65.22
43161;BME280;40968;52.342;5.528;2022-07-03T04:22:59;101703.69;;;16.14;65.37
43161;BME280;40968;52.342;5.528;2022-07-03T04:25:28;101753.91;;;16.49;64.96
43161;BME280;40968;52.342;5.528;2022-07-03T04:27:55;101717.75;;;16.29;64.61
43161;BME280;40968;52.342;5.528;2022-07-03T04:30:21;101755.41;;;16.53;64.72
43161;BME280;40968;52.342;5.528;2022-07-03T04:32:48;101751.44;;;16.57;65.14
43161;BME280;40968;52.342;5.528;2022-07-03T04:35:16;101744.34;;;16.66;64.75
43161;BME280;40968;52.342;5.528;2022-07-03T04:37:43;101737.44;;;16.73;64.77
43161;BME280;40968;52.342;5.528;2022-07-03T04:40:10;101721.88;;;16.66;64.70
43161;BME280;40968;52.342;5.528;2022-07-03T04:42:39;101751.28;;;16.92;64.36
43161;BME280;40968;52.342;5.528;2022-07-03T04:45:07;101744.88;;;16.93;64.37
43161;BME280;40968;52.342;5.528;2022-07-03T04:47:34;101747.63;;;17.02;64.29
43161;BME280;40968;52.342;5.528;2022-07-03T04:50:02;101749.78;;;17.09;64.50
43161;BME280;40968;52.342;5.528;2022-07-03T04:52:29;101712.94;;;16.96;63.81
43161;BME280;40968;52.342;5.528;2022-07-03T04:54:56;101728.13;;;17.09;63.21
43161;BME280;40968;52.342;5.528;2022-07-03T04:57:22;101738.41;;;17.15;63.41
43161;BME280;40968;52.342;5.528;2022-07-03T04:59:50;101700.19;;;17.08;63.44
43161;BME280;40968;52.342;5.528;2022-07-03T05:02:17;101717.06;;;17.21;62.49
43161;BME280;40968;52.342;5.528;2022-07-03T05:04:44;101719.06;;;17.19;62.42
43161;BME280;40968;52.342;5.528;2022-07-03T05:07:10;101757.06;;;17.39;62.04
43161;BME280;40968;52.342;5.528;2022-07-03T05:09:37;101772.19;;;17.42;62.37
43161;BME280;40968;52.342;5.528;2022-07-03T05:12:05;101765.63;;;17.44;62.42
43161;BME280;40968;52.342;5.528;2022-07-03T05:14:32;101739.44;;;17.23;62.36
43161;BME280;40968;52.342;5.528;2022-07-03T05:17:00;101759.47;;;17.42;62.29
43161;BME280;40968;52.342;5.528;2022-07-03T05:19:27;101767.66;;;17.52;62.08
43161;BME280;40968;52.342;5.528;2022-07-03T05:21:53;101766.53;;;17.54;62.15
43161;BME280;40968;52.342;5.528;2022-07-03T05:24:20;101761.38;;;17.51;61.73
43161;BME280;40968;52.342;5.528;2022-07-03T05:26:49;101754.56;;;17.57;62.28
43161;BME280;40968;52.342;5.528;2022-07-03T05:29:16;101767.16;;;17.78;62.20
43161;BME280;40968;52.342;5.528;2022-07-03T05:31:43;101778.63;;;17.91;61.84
43161;BME280;40968;52.342;5.528;2022-07-03T05:34:11;101787.22;;;18.06;61.56
43161;BME280;40968;52.342;5.528;2022-07-03T05:36:38;101763.13;;;18.03;61.02
43161;BME280;40968;52.342;5.528;2022-07-03T05:39:04;101786.13;;;18.18;60.97
43161;BME280;40968;52.342;5.528;2022-07-03T05:41:48;101787.69;;;18.21;61.24
43161;BME280;40968;52.342;5.528;2022-07-03T05:44:15;101720.09;;;17.88;60.87
43161;BME280;40968;52.342;5.528;2022-07-03T05:46:42;101771.84;;;18.16;60.75
43161;BME280;40968;52.342;5.528;2022-07-03T05:49:10;101774.66;;;18.05;61.41
43161;BME280;40968;52.342;5.528;2022-07-03T05:51:37;101763.66;;;17.97;61.70
43161;BME280;40968;52.342;5.528;2022-07-03T05:54:04;101778.25;;;18.05;61.88
43161;BME280;40968;52.342;5.528;2022-07-03T05:56:30;101775.53;;;18.05;61.96
43161;BME280;40968;52.342;5.528;2022-07-03T05:58:57;101762.09;;;17.94;62.34
43161;BME280;40968;52.342;5.528;2022-07-03T06:01:24;101749.50;;;17.83;62.16
43161;BME280;40968;52.342;5.528;2022-07-03T06:03:50;101758.06;;;17.88;62.19
43161;BME280;40968;52.342;5.528;2022-07-03T06:06:18;101768.31;;;17.85;62.54
43161;BME280;40968;52.342;5.528;2022-07-03T06:08:45;101752.44;;;17.70;62.85
43161;BME280;40968;52.342;5.528;2022-07-03T06:11:12;101765.84;;;17.72;62.90
43161;BME280;40968;52.342;5.528;2022-07-03T06:13:38;101781.44;;;17.80;63.16
43161;BME280;40968;52.342;5.528;2022-07-03T06:16:05;101762.31;;;17.71;63.29
43161;BME280;40968;52.342;5.528;2022-07-03T06:18:32;101762.31;;;17.81;63.47
43161;BME280;40968;52.342;5.528;2022-07-03T06:20:58;101673.44;;;17.24;63.51
43161;BME280;40968;52.342;5.528;2022-07-03T06:23:26;101789.81;;;18.08;63.33
43161;BME280;40968;52.342;5.528;2022-07-03T06:25:53;101716.03;;;17.63;63.33
43161;BME280;40968;52.342;5.528;2022-07-03T06:28:20;101774.94;;;18.02;62.99
43161;BME280;40968;52.342;5.528;2022-07-03T06:30:46;101784.97;;;18.11;63.24
43161;BME280;40968;52.342;5.528;2022-07-03T06:33:13;101762.69;;;17.98;63.42
43161;BME280;40968;52.342;5.528;2022-07-03T06:35:40;101797.38;;;18.14;62.95
43161;BME280;40968;52.342;5.528;2022-07-03T06:38:06;101760.97;;;17.97;63.54
43161;BME280;40968;52.342;5.528;2022-07-03T06:40:34;101782.25;;;18.01;63.70
43161;BME280;40968;52.342;5.528;2022-07-03T06:43:01;101790.69;;;18.08;63.91
43161;BME280;40968;52.342;5.528;2022-07-03T06:45:28;101797.69;;;18.20;63.88
43161;BME280;40968;52.342;5.528;2022-07-03T06:47:54;101800.28;;;18.32;64.12
43161;BME280;40968;52.342;5.528;2022-07-03T06:50:21;101774.53;;;18.26;63.06
43161;BME280;40968;52.342;5.528;2022-07-03T06:52:48;101793.00;;;18.42;62.68
43161;BME280;40968;52.342;5.528;2022-07-03T06:55:15;101803.69;;;18.53;62.03
43161;BME280;40968;52.342;5.528;2022-07-03T06:57:43;101810.00;;;18.54;61.60
43161;BME280;40968;52.342;5.528;2022-07-03T07:00:11;101799.56;;;18.59;62.05
43161;BME280;40968;52.342;5.528;2022-07-03T07:02:37;101797.81;;;18.68;61.53
43161;BME280;40968;52.342;5.528;2022-07-03T07:05:05;101784.97;;;18.70;61.33
43161;BME280;40968;52.342;5.528;2022-07-03T07:07:32;101809.41;;;18.89;60.37
43161;BME280;40968;52.342;5.528;2022-07-03T07:09:58;101805.81;;;18.99;60.10
43161;BME280;40968;52.342;5.528;2022-07-03T07:12:25;101797.94;;;19.05;60.00
43161;BME280;40968;52.342;5.528;2022-07-03T07:14:53;101804.53;;;19.13;59.26
43161;BME280;40968;52.342;5.528;2022-07-03T07:17:20;101784.63;;;19.12;59.69
43161;BME280;40968;52.342;5.528;2022-07-03T07:19:46;101719.94;;;18.78;59.28
43161;BME280;40968;52.342;5.528;2022-07-03T07:22:13;101803.19;;;19.27;59.31
43161;BME280;40968;52.342;5.528;2022-07-03T07:24:40;101783.16;;;19.28;58.53
43161;BME280;40968;52.342;5.528;2022-07-03T07:27:07;101797.66;;;19.56;58.38
43161;BME280;40968;52.342;5.528;2022-07-03T07:29:33;101782.00;;;19.68;58.07
43161;BME280;40968;52.342;5.528;2022-07-03T07:32:02;101765.56;;;19.60;57.11
43161;BME280;40968;52.342;5.528;2022-07-03T07:34:28;101760.13;;;19.60;58.21
43161;BME280;40968;52.342;5.528;2022-07-03T07:36:55;101811.44;;;19.82;57.81
43161;BME280;40968;52.342;5.528;2022-07-03T07:39:21;101783.56;;;19.70;57.06
43161;BME280;40968;52.342;5.528;2022-07-03T07:41:48;101807.19;;;19.98;57.12
43161;BME280;40968;52.342;5.528;2022-07-03T07:44:15;101823.88;;;20.03;55.59
43161;BME280;40968;52.342;5.528;2022-07-03T07:46:42;101812.00;;;20.04;55.94
43161;BME280;40968;52.342;5.528;2022-07-03T07:49:10;101780.59;;;19.92;56.35
43161;BME280;40968;52.342;5.528;2022-07-03T07:51:37;101808.34;;;19.95;54.85
43161;BME280;40968;52.342;5.528;2022-07-03T07:54:04;101830.38;;;20.02;54.03
43161;BME280;40968;52.342;5.528;2022-07-03T07:56:31;101824.69;;;20.13;53.48
43161;BME280;40968;52.342;5.528;2022-07-03T07:58:57;101787.75;;;19.93;53.75
43161;BME280;40968;52.342;5.528;2022-07-03T08:01:25;101821.69;;;20.16;53.74
43161;BME280;40968;52.342;5.528;2022-07-03T08:04:11;101809.13;;;20.05;53.88
43161;BME280;40968;52.342;5.528;2022-07-03T08:06:55;101827.72;;;20.10;53.72
43161;BME280;40968;52.342;5.528;2022-07-03T08:09:22;101812.63;;;19.98;53.68
43161;BME280;40968;52.342;5.528;2022-07-03T08:11:49;101841.66;;;20.07;53.82
43161;BME280;40968;52.342;5.528;2022-07-03T08:14:15;101818.59;;;20.01;54.84
43161;BME280;40968;52.342;5.528;2022-07-03T08:16:42;101828.19;;;20.24;55.47
43161;BME280;40968;52.342;5.528;2022-07-03T08:19:12;101821.16;;;20.31;54.00
43161;BME280;40968;52.342;5.528;2022-07-03T08:21:40;101830.34;;;20.48;53.88
43161;BME280;40968;52.342;5.528;2022-07-03T08:24:07;101791.72;;;20.34;54.31
43161;BME280;40968;52.342;5.528;2022-07-03T08:26:35;101748.88;;;20.18;53.86
43161;BME280;40968;52.342;5.528;2022-07-03T08:29:03;101831.84;;;20.68;53.66
43161;BME280;40968;52.342;5.528;2022-07-03T08:31:29;101835.69;;;20.58;53.63
43161;BME280;40968;52.342;5.528;2022-07-03T08:33:56;101808.38;;;20.49;52.08
43161;BME280;40968;52.342;5.528;2022-07-03T08:36:24;101820.34;;;20.57;52.90
43161;BME280;40968;52.342;5.528;2022-07-03T08:38:51;101816.63;;;20.58;51.72
43161;BME280;40968;52.342;5.528;2022-07-03T08:41:20;101802.88;;;20.41;50.93
43161;BME280;40968;52.342;5.528;2022-07-03T08:43:49;101820.28;;;20.48;50.86
43161;BME280;40968;52.342;5.528;2022-07-03T08:46:17;101813.13;;;20.65;51.34
43161;BME280;40968;52.342;5.528;2022-07-03T08:48:45;101829.69;;;20.90;50.59
43161;BME280;40968;52.342;5.528;2022-07-03T08:51:13;101840.44;;;20.92;51.41
43161;BME280;40968;52.342;5.528;2022-07-03T08:53:43;101763.06;;;20.40;51.23
43161;BME280;40968;52.342;5.528;2022-07-03T08:56:10;101816.09;;;20.72;50.83
43161;BME280;40968;52.342;5.528;2022-07-03T08:58:38;101792.19;;;20.66;50.69
43161;BME280;40968;52.342;5.528;2022-07-03T09:01:05;101825.84;;;21.01;51.82
43161;BME280;40968;52.342;5.528;2022-07-03T09:03:32;101828.38;;;21.20;51.12
43161;BME280;40968;52.342;5.528;2022-07-03T09:06:00;101790.94;;;21.23;51.23
43161;BME280;40968;52.342;5.528;2022-07-03T09:08:27;101791.13;;;21.56;49.93
43161;BME280;40968;52.342;5.528;2022-07-03T09:10:58;101815.59;;;21.82;49.80
43161;BME280;40968;52.342;5.528;2022-07-03T09:13:27;101817.88;;;21.95;48.49
43161;BME280;40968;52.342;5.528;2022-07-03T09:15:54;101822.34;;;22.04;48.42
43161;BME280;40968;52.342;5.528;2022-07-03T09:18:36;101824.25;;;22.12;47.63
43161;BME280;40968;52.342;5.528;2022-07-03T09:21:04;101830.72;;;22.11;46.66
43161;BME280;40968;52.342;5.528;2022-07-03T09:23:35;101824.53;;;21.92;47.29
43161;BME280;40968;52.342;5.528;2022-07-03T09:26:05;101823.81;;;21.90;46.37
43161;BME280;40968;52.342;5.528;2022-07-03T09:28:46;101828.72;;;21.78;47.63
43161;BME280;40968;52.342;5.528;2022-07-03T09:31:17;101823.88;;;22.07;48.47
43161;BME280;40968;52.342;5.528;2022-07-03T09:33:55;101829.63;;;22.46;47.03
43161;BME280;40968;52.342;5.528;2022-07-03T09:36:23;101810.84;;;22.76;46.39
43161;BME280;40968;52.342;5.528;2022-07-03T09:39:11;101784.88;;;22.80;46.73
43161;BME280;40968;52.342;5.528;2022-07-03T09:41:55;101780.06;;;23.24;46.44
43161;BME280;40968;52.342;5.528;2022-07-03T09:44:32;101827.56;;;23.23;46.18
43161;BME280;40968;52.342;5.528;2022-07-03T09:47:14;101819.72;;;22.95;46.16
43161;BME280;40968;52.342;5.528;2022-07-03T09:49:51;101800.44;;;22.55;46.78
43161;BME280;40968;52.342;5.528;2022-07-03T09:52:30;101824.50;;;22.51;46.83
43161;BME280;40968;52.342;5.528;2022-07-03T09:54:59;101834.41;;;22.44;47.74
43161;BME280;40968;52.342;5.528;2022-07-03T09:57:28;101831.97;;;22.33;47.69
43161;BME280;40968;52.342;5.528;2022-07-03T10:00:10;101833.44;;;22.19;47.68
43161;BME280;40968;52.342;5.528;2022-07-03T10:02:51;101778.22;;;21.66;49.89
43161;BME280;40968;52.342;5.528;2022-07-03T10:05:18;101830.25;;;21.73;50.54
43161;BME280;40968;52.342;5.528;2022-07-03T10:07:55;101840.94;;;21.66;51.18
43161;BME280;40968;52.342;5.528;2022-07-03T10:10:24;101826.31;;;21.41;51.98
43161;BME280;40968;52.342;5.528;2022-07-03T10:12:53;101858.13;;;21.58;51.69
43161;BME280;40968;52.342;5.528;2022-07-03T10:15:22;101836.38;;;21.48;51.85
43161;BME280;40968;52.342;5.528;2022-07-03T10:17:50;101837.50;;;21.56;51.58
43161;BME280;40968;52.342;5.528;2022-07-03T10:20:24;101815.06;;;21.78;50.84
43161;BME280;40968;52.342;5.528;2022-07-03T10:22:52;101825.91;;;21.96;49.92
43161;BME280;40968;52.342;5.528;2022-07-03T10:25:20;101816.69;;;21.97;49.49
43161;BME280;40968;52.342;5.528;2022-07-03T10:27:47;101791.91;;;21.82;49.64
43161;BME280;40968;52.342;5.528;2022-07-03T10:30:17;101751.25;;;21.63;48.67
43161;BME280;40968;52.342;5.528;2022-07-03T10:32:45;101823.72;;;22.08;50.04
43161;BME280;40968;52.342;5.528;2022-07-03T10:35:14;101815.75;;;22.23;48.44
43161;BME280;40968;52.342;5.528;2022-07-03T10:37:58;101820.88;;;22.34;48.39
43161;BME280;40968;52.342;5.528;2022-07-03T10:40:37;101828.94;;;22.61;47.88
43161;BME280;40968;52.342;5.528;2022-07-03T10:43:26;101847.59;;;22.90;47.85
43161;BME280;40968;52.342;5.528;2022-07-03T10:46:13;101826.22;;;23.02;47.57
43161;BME280;40968;52.342;5.528;2022-07-03T10:48:57;101835.25;;;23.27;47.89
43161;BME280;40968;52.342;5.528;2022-07-03T10:51:25;101819.28;;;23.56;46.46
43161;BME280;40968;52.342;5.528;2022-07-03T10:54:13;101829.91;;;23.42;45.70
43161;BME280;40968;52.342;5.528;2022-07-03T10:57:09;101846.88;;;23.29;46.15
43161;BME280;40968;52.342;5.528;2022-07-03T11:00:00;101834.41;;;23.10;46.05
43161;BME280;40968;52.342;5.528;2022-07-03T11:02:33;101842.25;;;23.13;46.52
43161;BME280;40968;52.342;5.528;2022-07-03T11:05:17;101831.97;;;23.40;45.67
43161;BME280;40968;52.342;5.528;2022-07-03T11:08:04;101834.09;;;23.70;45.18
43161;BME280;40968;52.342;5.528;2022-07-03T11:10:33;101827.41;;;23.72;45.64
43161;BME280;40968;52.342;5.528;2022-07-03T11:13:07;101826.69;;;23.95;43.59
43161;BME280;40968;52.342;5.528;2022-07-03T11:15:38;101792.31;;;24.15;43.94
43161;BME280;40968;52.342;5.528;2022-07-03T11:18:28;101819.19;;;24.43;43.62
43161;BME280;40968;52.342;5.528;2022-07-03T11:21:28;101802.25;;;24.16;44.11
43161;BME280;40968;52.342;5.528;2022-07-03T11:24:24;101821.88;;;23.97;45.17
43161;BME280;40968;52.342;5.528;2022-07-03T11:27:11;101827.50;;;23.56;46.65
43161;BME280;40968;52.342;5.528;2022-07-03T11:29:38;101787.63;;;22.72;47.34
43161;BME280;40968;52.342;5.528;2022-07-03T11:35:08;101792.28;;;20.38;61.29
43161;BME280;40968;52.342;5.528;2022-07-03T11:37:35;101853.88;;;19.55;67.87
43161;BME280;40968;52.342;5.528;2022-07-03T11:40:06;101836.84;;;18.47;71.33
43161;BME280;40968;52.342;5.528;2022-07-03T11:42:34;101834.63;;;17.71;74.17
43161;BME280;40968;52.342;5.528;2022-07-03T11:45:01;101864.63;;;17.48;76.05
43161;BME280;40968;52.342;5.528;2022-07-03T11:47:27;101860.03;;;17.18;77.84
43161;BME280;40968;52.342;5.528;2022-07-03T11:49:55;101856.72;;;17.14;78.79
43161;BME280;40968;52.342;5.528;2022-07-03T11:52:32;101869.94;;;17.29;79.38
43161;BME280;40968;52.342;5.528;2022-07-03T11:54:59;101869.78;;;17.30;79.61
43161;BME280;40968;52.342;5.528;2022-07-03T11:57:26;101840.78;;;17.21;80.23
43161;BME280;40968;52.342;5.528;2022-07-03T11:59:54;101872.03;;;17.46;80.63
43161;BME280;40968;52.342;5.528;2022-07-03T12:02:29;101857.25;;;17.50;79.69
43161;BME280;40968;52.342;5.528;2022-07-03T12:04:56;101811.41;;;17.47;79.98
43161;BME280;40968;52.342;5.528;2022-07-03T12:07:22;101841.69;;;17.83;79.49
43161;BME280;40968;52.342;5.528;2022-07-03T12:09:50;101858.34;;;18.10;79.24
43161;BME280;40968;52.342;5.528;2022-07-03T12:12:23;101843.53;;;18.23;78.89
43161;BME280;40968;52.342;5.528;2022-07-03T12:14:51;101858.69;;;18.46;77.05
43161;BME280;40968;52.342;5.528;2022-07-03T12:17:20;101817.25;;;18.53;77.57
43161;BME280;40968;52.342;5.528;2022-07-03T12:19:48;101815.81;;;18.88;73.72
43161;BME280;40968;52.342;5.528;2022-07-03T12:22:25;101875.09;;;19.90;74.46
43161;BME280;40968;52.342;5.528;2022-07-03T12:25:00;101886.72;;;20.37;69.16
43161;BME280;40968;52.342;5.528;2022-07-03T12:27:28;101876.19;;;20.89;66.80
43161;BME280;40968;52.342;5.528;2022-07-03T12:29:55;101874.72;;;21.20;65.11
43161;BME280;40968;52.342;5.528;2022-07-03T12:32:22;101881.13;;;21.56;63.06
43161;BME280;40968;52.342;5.528;2022-07-03T12:34:49;101872.34;;;21.70;60.51
43161;BME280;40968;52.342;5.528;2022-07-03T12:37:16;101836.97;;;21.95;59.70
43161;BME280;40968;52.342;5.528;2022-07-03T12:39:47;101873.66;;;22.43;57.22
43161;BME280;40968;52.342;5.528;2022-07-03T12:42:23;101876.56;;;21.99;58.11
43161;BME280;40968;52.342;5.528;2022-07-03T12:44:57;101869.16;;;21.83;57.75
43161;BME280;40968;52.342;5.528;2022-07-03T12:47:24;101851.66;;;21.59;58.47
43161;BME280;40968;52.342;5.528;2022-07-03T12:49:55;101868.09;;;21.49;58.65
43161;BME280;40968;52.342;5.528;2022-07-03T12:52:23;101854.25;;;21.16;59.18
43161;BME280;40968;52.342;5.528;2022-07-03T12:54:50;101858.25;;;21.04;58.68
43161;BME280;40968;52.342;5.528;2022-07-03T12:57:16;101871.69;;;20.79;58.64
43161;BME280;40968;52.342;5.528;2022-07-03T13:00:06;101892.91;;;20.30;65.17
43161;BME280;40968;52.342;5.528;2022-07-03T13:02:34;101865.41;;;19.30;65.76
43161;BME280;40968;52.342;5.528;2022-07-03T13:05:13;101873.84;;;19.07;67.96
43161;BME280;40968;52.342;5.528;2022-07-03T13:07:41;101845.56;;;18.70;67.58
43161;BME280;40968;52.342;5.528;2022-07-03T13:10:09;101826.69;;;18.49;67.93